• 1
  • 2
  • 1

 

 

 
NEU! ab. 1.4.
Nortel Info 128,740 MHz

WebCam

  
Kamera Halle
Kamera Vorfeld
Wetter EDDS

METAR

EDDS 172220Z 24004KT 190V290 9999 FEW060CB 19/13 Q1018 =


TAF

EDDS 171700Z 1718/1818 16007KT CAVOK PROB30 TEMPO 1718/1719 28015G25KT 4000 TSRA SCT050CB BECMG 1718/1720 25004KT BECMG 1810/1812 35005KT =


SR/SS

03:38 / 19:16 UTC
(EDSO 18-07-2018)